Kealia, HI (96751)

1:24 AM HST on August 05, 2015 (GMT -1000)
WAILUA HOMESTEADS | | Change Station
CLOSE
Current Station
Personal Weather Station
Location: Kapaa, HI
Elevation: 361 ft
Nearby Weather Stations
Active Advisory: High Surf Advisory

Elev 361 ft 22.07 °N, 159.36 °W | Updated 48 seconds ago

Light Rain
Light Rain
75.7 °F
Feels Like 75 °F
N
0.0
Wind Variable Wind from NE
Gusts 9.0 mph

Today
High -- | Low -- °F
--% Chance of Precip.
Yesterday
High -- | Low -- °F
Precip. -- in
6:11 AM 7:15 PM
Waning Gibbous, 68% visible
Pressure 29.93 in
Visibility 8.0 miles
Clouds Scattered Clouds 1800 ft
Mostly Cloudy 4400 ft
Overcast 6000 ft
Heat Index 75 °F
Dew Point 74 °F
Humidity 96%
Rainfall 0.09 in
Snow Depth Not available.
UV 0.0 out of 12
Pollen Not available.
Air Quality Not available.
Flu Activity Not available.
SPECI PHLI 051106Z 05008KT 8SM -RA SCT018 BKN044 OVC060 26/24 A2993 RMK AO2 RAB1059 P0001

More Conditions Fewer Conditions

Pressure 29.93 in
Visibility 8.0 miles
Clouds Scattered Clouds 1800 ft
Mostly Cloudy 4400 ft
Overcast 6000 ft
Heat Index 75 °F
Dew Point 74 °F
Humidity 96%
Rainfall 0.09 in
Snow Depth Not available.
UV 0.0 out of 12
Pollen Not available.
Air Quality Not available.
Flu Activity Not available.
SPECI PHLI 051106Z 05008KT 8SM -RA SCT018 BKN044 OVC060 26/24 A2993 RMK AO2 RAB1059 P0001

More Conditions Fewer Conditions

10-Day Weather Forecast

×

Almanac

Astronomy

Aug. 05, 2015 Rise Set
Actual Time
Civil Twilight
Nautical Twilight
Astronomical Twilight
Moon
Length of Visible Light
Length of Day
Tomorrow will be .
, % of the Moon is Illuminated

Today's Extremes

State Highs State Lows

Community

WunderPhotos

Upload Photos

1,844,133 photos uploaded!

WunderBlogs® & News

Nearby

Air Quality

  Air Quality AQ Index Pollutant
Not available.

Snow Depth

Station Depth Elevation

Earthquake Activity

City Distance Mag. Time & Date
Minimum magnitude displayed is 2.5.

Coastal Water Temperatures

Place Temperature

Stations

Nearby Weather Stations

Station Location Temp. Windchill Dew Point Humidity Wind Precip. Elev Updated Type
                   
High Surf Advisory
Statement as of 3:30 PM HST on August 04, 2015

... High surf advisory remains in effect from midnight tonight to
noon HST Thursday...

A high surf advisory remains in effect from midnight tonight to
noon HST Thursday.

* Surf... up to 5 feet through the evening... increasing to 6 to
10 feet late tonight and Wednesday... .then declining Thursday.

* Timing... building late tonight... peaking late Wednesday... then
declining Thursday.

* Impacts... moderate... expect strong breaking waves... shore
break... and strong currents making swimming dangerous.

Precautionary/preparedness actions... heed all advice from ocean
safety officials and exercise caution. Boaters should expect
surfers using Harbor channels to reach surf breaks.


Donaldson